Terminal Aerodrome Forecast
Issued by NWS Omaha/Valley, NE

Home | Current Version | Previous Version | Graphics & Text | Print | Product List | Glossary On
Versions: 1 2 3 4 5 6 7 8 9 10 11 12 13 14 15 16 17 18 19 20 21 22 23 24 25 26 27 28 29
000
FTUS43 KOAX 021120
TAFOFK
TAF
KOFK 021120Z 0212/0312 13005KT P6SM BKN150
     FM021500 16010KT P6SM SCT100 BKN200
     FM021700 16018G25KT P6SM BKN080
     FM030400 17015KT 6SM BR OVC015 PROB30 0306/0312 4SM -FZRADZ BR
      OVC010=

USA.gov is the U.S. government's official web portal to all federal, state and local government web resources and services.